createdAt,value
2019-06-20T06:35:03.744Z,52.94
2019-06-20T06:36:44.548Z,53.31
2019-06-20T06:38:24.217Z,53.22
2019-06-20T06:40:03.134Z,55.10
2019-06-20T06:41:42.059Z,54.15
2019-06-20T06:43:20.336Z,53.19
2019-06-20T06:44:58.856Z,52.80
2019-06-20T06:46:44.799Z,52.09
2019-06-20T06:48:18.619Z,53.00
2019-06-20T06:49:58.299Z,53.23
2019-06-20T06:51:38.274Z,51.21
2019-06-20T06:53:18.533Z,51.32
2019-06-20T06:54:56.974Z,52.14
2019-06-20T06:56:36.733Z,51.05
2019-06-20T06:58:15.372Z,50.65
2019-06-20T06:59:53.840Z,51.44
2019-06-20T07:01:33.243Z,50.93
2019-06-20T07:03:12.829Z,50.35
2019-06-20T07:04:53.248Z,50.00
2019-06-20T07:06:31.159Z,49.27
2019-06-20T07:08:12.170Z,48.09
2019-06-20T07:10:31.532Z,47.77
2019-06-20T07:12:10.914Z,47.44
2019-06-20T07:13:50.226Z,48.76
2019-06-20T07:15:29.148Z,51.45
2019-06-20T07:17:07.157Z,49.91
2019-06-20T07:18:45.905Z,50.98
2019-06-20T07:20:24.150Z,49.94
2019-06-20T07:22:03.091Z,49.60
2019-06-20T07:23:41.847Z,46.29
2019-06-20T07:25:20.914Z,47.87
2019-06-20T07:26:59.069Z,46.43
2019-06-20T07:28:37.802Z,45.61
2019-06-20T07:30:17.328Z,46.02
2019-06-20T07:31:57.258Z,47.53
2019-06-20T07:33:35.709Z,44.94
2019-06-20T07:35:16.538Z,45.18
2019-06-20T07:36:54.904Z,49.44
2019-06-20T07:38:33.847Z,46.11
2019-06-20T07:40:12.786Z,45.58
2019-06-20T07:41:51.613Z,43.10
2019-06-20T07:43:29.977Z,43.08
2019-06-20T07:45:10.914Z,45.17
2019-06-20T07:46:49.606Z,45.37
2019-06-20T07:48:28.361Z,44.64
2019-06-20T07:50:10.691Z,46.10
2019-06-20T07:51:49.441Z,44.42
2019-06-20T07:53:28.075Z,43.84
2019-06-20T07:55:11.484Z,43.45
2019-06-20T07:56:50.676Z,46.93
2019-06-20T07:58:28.784Z,43.44
2019-06-20T08:00:09.657Z,43.94
2019-06-20T08:01:47.808Z,42.97
2019-06-20T08:03:26.483Z,43.58
2019-06-20T08:05:06.243Z,41.91
2019-06-20T08:06:46.387Z,41.45
2019-06-20T08:08:25.592Z,42.85
2019-06-20T08:10:13.346Z,43.44
2019-06-20T08:11:52.289Z,44.89
2019-06-20T08:13:30.709Z,42.02
2019-06-20T08:15:15.599Z,43.24
2019-06-20T08:16:51.510Z,41.42
2019-06-20T08:18:30.519Z,41.18
2019-06-20T08:20:11.342Z,41.80
2019-06-20T08:21:49.915Z,41.67
2019-06-20T08:23:28.530Z,43.15
2019-06-20T08:25:10.191Z,39.90
2019-06-20T08:26:50.423Z,41.17
2019-06-20T08:35:19.516Z,38.97
2019-06-20T08:37:04.293Z,39.89
2019-06-20T08:38:44.537Z,41.26
2019-06-20T08:40:30.994Z,41.37
2019-06-20T08:42:11.212Z,40.72
2019-06-20T08:43:51.833Z,41.63
2019-06-20T08:47:25.208Z,42.08
2019-06-20T08:49:08.198Z,40.17
2019-06-20T08:50:47.766Z,41.28
2019-06-20T09:02:45.368Z,39.63
2019-06-20T09:04:23.947Z,42.00
2019-06-20T09:06:04.837Z,39.24
2019-06-20T09:07:44.592Z,38.77
2019-06-20T09:09:23.717Z,38.43
2019-06-20T09:11:04.014Z,38.13
2019-06-20T09:12:45.141Z,35.12
2019-06-20T09:14:25.039Z,35.39
2019-06-20T09:16:05.114Z,38.61
2019-06-20T09:17:43.957Z,36.01
2019-06-20T09:19:23.174Z,35.53
2019-06-20T09:21:02.185Z,35.68
2019-06-20T09:31:12.626Z,36.09
2019-06-20T09:33:06.653Z,33.84
